< < Back
Terminal Aerodrome Forecast


Current Version              Previous Versions:   1  2  3  4  5  6  7  8  9  

Terminal Aerodrome Forecast

383
FTUS44 KMRX 160614 AAA
TAFTYS
TAF AMD
KTYS 160614Z 1606/1706 22005KT 5SM BR SCT005 OVC015
      TEMPO 1606/1610 3SM BR BKN005 OVC012
     FM161500 26005KT P6SM SCT040 BKN100
     FM162000 29007KT P6SM SCT050 BKN150
     FM170100 01004KT P6SM SCT150=

Latest METAR

586
SAUS80 KWBC 160900 RRB
MTRTYS
METAR KTYS 160853Z 23007KT 5SM BR OVC006 21/21 A3009 RMK AO2 CIG 006V010
SLP178 T02110206 55008


USA.gov is the U.S. government's official web portal to all federal, state and local government web resources and services.